createdAt,value
2023-03-27T00:02:59.713Z,7.76
2023-03-27T00:08:03.533Z,7.71
2023-03-27T00:13:07.367Z,7.71
2023-03-27T00:18:10.460Z,7.67
2023-03-27T00:23:13.457Z,7.63
2023-03-27T00:28:18.030Z,7.59
2023-03-27T00:33:21.565Z,7.53
2023-03-27T00:38:24.651Z,7.55
2023-03-27T00:43:34.358Z,7.56
2023-03-27T00:48:38.011Z,7.55
2023-03-27T00:53:42.716Z,7.60
2023-03-27T00:59:05.982Z,7.60
2023-03-27T01:04:09.229Z,7.44
2023-03-27T01:09:20.569Z,7.39
2023-03-27T01:14:30.591Z,7.45
2023-03-27T01:20:05.920Z,7.51
2023-03-27T01:25:32.104Z,7.57
2023-03-27T01:30:42.434Z,7.65
2023-03-27T01:36:27.527Z,7.78
2023-03-27T01:41:40.782Z,7.87
2023-03-27T01:47:13.888Z,7.94
2023-03-27T01:52:25.184Z,7.98
2023-03-27T01:57:37.403Z,8.00
2023-03-27T02:03:09.612Z,8.04
2023-03-27T02:08:43.790Z,8.15
2023-03-27T02:14:00.642Z,8.22
2023-03-27T02:19:30.258Z,8.08
2023-03-27T02:24:33.218Z,7.98
2023-03-27T02:29:56.401Z,7.93
2023-03-27T02:35:02.932Z,7.96
2023-03-27T02:40:39.891Z,8.00
2023-03-27T02:45:55.191Z,7.96
2023-03-27T02:50:59.943Z,7.99
2023-03-27T02:56:06.949Z,8.01
2023-03-27T03:01:13.779Z,7.99
2023-03-27T03:06:18.257Z,7.98
2023-03-27T03:11:22.200Z,8.02
2023-03-27T03:16:26.108Z,8.02
2023-03-27T03:21:29.159Z,7.91
2023-03-27T03:26:32.350Z,7.89
2023-03-27T03:31:44.624Z,8.01
2023-03-27T03:36:50.521Z,8.11
2023-03-27T03:41:53.605Z,8.10
2023-03-27T03:46:56.526Z,8.13
2023-03-27T03:52:03.905Z,8.16
2023-03-27T03:57:08.907Z,8.15
2023-03-27T04:02:12.434Z,8.14
2023-03-27T04:07:17.898Z,8.05
2023-03-27T04:12:21.034Z,8.04
2023-03-27T04:17:26.561Z,8.07
2023-03-27T04:22:29.737Z,8.10
2023-03-27T04:27:32.769Z,8.17
2023-03-27T04:32:36.844Z,8.19
2023-03-27T04:37:43.184Z,8.12
2023-03-27T04:42:46.285Z,8.05
2023-03-27T04:47:49.450Z,7.93
2023-03-27T04:52:58.441Z,7.86
2023-03-27T04:58:02.511Z,7.86
2023-03-27T05:03:05.608Z,8.00
2023-03-27T05:08:08.748Z,8.10
2023-03-27T05:13:12.449Z,8.17
2023-03-27T05:18:16.180Z,8.12
2023-03-27T05:23:19.220Z,8.12
2023-03-27T05:28:25.492Z,8.10
2023-03-27T05:33:28.897Z,8.04
2023-03-27T05:38:31.810Z,8.00
2023-03-27T05:43:34.798Z,8.07
2023-03-27T05:48:38.743Z,8.15
2023-03-27T05:53:41.677Z,8.21
2023-03-27T05:58:44.624Z,8.26
2023-03-27T06:03:49.276Z,8.27
2023-03-27T06:08:53.347Z,8.20
2023-03-27T06:13:58.083Z,8.18
2023-03-27T06:19:01.571Z,8.08
2023-03-27T06:24:04.858Z,7.97
2023-03-27T06:29:08.844Z,7.93
2023-03-27T06:34:15.180Z,7.88
2023-03-27T06:39:18.227Z,7.81
2023-03-27T06:44:21.194Z,7.72
2023-03-27T06:49:24.290Z,7.64
2023-03-27T06:54:27.262Z,7.64
2023-03-27T06:59:30.770Z,7.67
2023-03-27T07:04:33.890Z,7.66
2023-03-27T07:09:39.439Z,7.67
2023-03-27T07:14:43.077Z,7.67
2023-03-27T07:19:46.709Z,7.70
2023-03-27T07:24:49.708Z,7.74
2023-03-27T07:29:54.364Z,7.79
2023-03-27T07:34:57.418Z,7.85
2023-03-27T07:40:00.354Z,7.85
2023-03-27T07:45:04.379Z,7.77
2023-03-27T07:50:10.370Z,7.70
2023-03-27T07:55:18.935Z,7.70
2023-03-27T08:00:25.956Z,7.76
2023-03-27T08:05:29.114Z,7.86
2023-03-27T08:10:32.094Z,8.04
2023-03-27T08:15:35.057Z,8.21
2023-03-27T08:20:39.021Z,8.29
2023-03-27T08:25:42.984Z,8.24
2023-03-27T08:30:46.406Z,8.16
2023-03-27T08:35:51.411Z,8.16
2023-03-27T08:40:59.248Z,8.14
2023-03-27T08:46:26.004Z,8.13
2023-03-27T08:51:40.562Z,8.01
2023-03-27T08:56:44.210Z,7.94
2023-03-27T09:02:28.799Z,7.97
2023-03-27T09:08:25.062Z,7.98
2023-03-27T09:13:38.594Z,8.00
2023-03-27T09:18:47.709Z,7.98
2023-03-27T09:23:54.198Z,8.03
2023-03-27T09:29:05.177Z,8.08
2023-03-27T09:34:14.176Z,8.02
2023-03-27T09:39:22.622Z,7.97
2023-03-27T09:44:34.365Z,7.88
2023-03-27T09:49:40.878Z,7.85
2023-03-27T09:54:54.175Z,7.87
2023-03-27T10:00:15.600Z,7.79
2023-03-27T10:05:22.170Z,7.77
2023-03-27T10:10:27.878Z,7.86
2023-03-27T10:15:38.665Z,7.81
2023-03-27T10:20:51.612Z,7.65
2023-03-27T10:26:00.864Z,7.48
2023-03-27T10:31:24.771Z,7.36
2023-03-27T10:36:31.625Z,7.26
2023-03-27T10:41:36.921Z,7.17
2023-03-27T10:46:41.129Z,7.07
2023-03-27T10:51:52.634Z,7.06
2023-03-27T10:57:09.744Z,7.10
2023-03-27T11:02:20.686Z,7.10
2023-03-27T11:07:43.333Z,6.99
2023-03-27T11:13:02.653Z,6.82
2023-03-27T11:18:32.991Z,6.78
2023-03-27T11:23:55.941Z,6.71
2023-03-27T11:29:20.550Z,6.66
2023-03-27T11:35:08.359Z,6.70
2023-03-27T11:40:28.645Z,6.67
2023-03-27T11:45:44.929Z,6.70
2023-03-27T11:51:11.997Z,6.72
2023-03-27T11:56:33.724Z,6.76
2023-03-27T12:02:07.742Z,6.79
2023-03-27T12:07:35.300Z,6.64
2023-03-27T12:13:08.330Z,6.49
2023-03-27T12:18:25.693Z,6.40
2023-03-27T12:24:28.656Z,6.44
2023-03-27T12:30:25.589Z,6.34
2023-03-27T12:35:39.623Z,6.27
2023-03-27T12:41:03.009Z,6.23
2023-03-27T12:46:24.274Z,6.05
2023-03-27T12:52:04.923Z,5.96
2023-03-27T12:57:25.083Z,5.86
2023-03-27T13:03:39.989Z,5.75
2023-03-27T13:09:29.073Z,5.67
2023-03-27T13:15:11.623Z,5.65
2023-03-27T13:20:37.304Z,5.66
2023-03-27T13:25:40.430Z,5.65
2023-03-27T13:30:51.563Z,5.69
2023-03-27T13:35:57.745Z,5.64
2023-03-27T13:41:52.687Z,5.65
2023-03-27T13:47:12.077Z,5.64
2023-03-27T13:52:46.904Z,5.66
2023-03-27T13:58:22.046Z,5.71
2023-03-27T14:03:48.778Z,5.73
2023-03-27T14:09:12.528Z,5.74
2023-03-27T14:15:00.821Z,5.70
2023-03-27T14:20:25.201Z,5.67
2023-03-27T14:25:36.560Z,5.61
2023-03-27T14:30:46.534Z,5.60
2023-03-27T14:35:57.214Z,5.63
2023-03-27T14:41:07.887Z,5.55
2023-03-27T14:46:11.891Z,5.56
2023-03-27T14:51:19.918Z,5.58
2023-03-27T14:56:30.863Z,5.56
2023-03-27T15:01:35.391Z,5.51
2023-03-27T15:06:38.976Z,5.44
2023-03-27T15:11:48.085Z,5.41
2023-03-27T15:17:08.257Z,5.41
2023-03-27T15:22:47.553Z,5.46
2023-03-27T15:27:54.137Z,5.38
2023-03-27T15:33:01.988Z,5.39
2023-03-27T15:38:09.592Z,5.43
2023-03-27T15:43:18.396Z,5.45
2023-03-27T15:48:45.587Z,5.37
2023-03-27T15:53:53.745Z,5.28
2023-03-27T15:59:02.695Z,5.18
2023-03-27T16:04:17.038Z,5.10
2023-03-27T16:09:32.319Z,5.12
2023-03-27T16:14:40.843Z,5.09
2023-03-27T16:19:56.128Z,5.04
2023-03-27T16:25:01.859Z,5.04
2023-03-27T16:30:08.180Z,5.00
2023-03-27T16:35:11.563Z,4.86
2023-03-27T16:40:14.894Z,4.82
2023-03-27T16:45:17.981Z,4.70
2023-03-27T16:50:25.688Z,4.74
2023-03-27T16:55:28.605Z,4.68
2023-03-27T17:00:31.784Z,4.57
2023-03-27T17:05:34.855Z,4.51
2023-03-27T17:10:37.820Z,4.44
2023-03-27T17:15:40.825Z,4.36
2023-03-27T17:20:43.792Z,4.31
2023-03-27T17:25:47.412Z,4.29
2023-03-27T17:31:03.267Z,4.27
2023-03-27T17:36:29.787Z,4.19
2023-03-27T17:41:40.009Z,4.10
2023-03-27T17:46:43.148Z,4.03
2023-03-27T17:51:46.106Z,4.02
2023-03-27T17:56:49.184Z,4.02
2023-03-27T18:01:52.276Z,3.98
2023-03-27T18:06:55.298Z,3.94
2023-03-27T18:11:58.234Z,3.83
2023-03-27T18:17:01.312Z,3.79
2023-03-27T18:22:05.246Z,3.74
2023-03-27T18:27:08.089Z,3.60
2023-03-27T18:32:11.064Z,3.52
2023-03-27T18:37:14.142Z,3.37
2023-03-27T18:42:17.720Z,3.31
2023-03-27T18:47:20.726Z,3.35
2023-03-27T18:52:26.941Z,3.44
2023-03-27T18:57:29.942Z,3.47
2023-03-27T19:02:34.273Z,3.38
2023-03-27T19:07:37.842Z,3.21
2023-03-27T19:12:49.771Z,3.17
2023-03-27T19:17:52.907Z,3.10
2023-03-27T19:22:56.141Z,3.02
2023-03-27T19:27:59.103Z,3.09
2023-03-27T19:33:02.584Z,3.08
2023-03-27T19:38:05.788Z,2.98
2023-03-27T19:43:08.735Z,2.95
2023-03-27T19:48:12.840Z,2.99
2023-03-27T19:53:16.041Z,3.00
2023-03-27T19:58:19.158Z,2.98
2023-03-27T20:03:24.412Z,2.90
2023-03-27T20:08:30.519Z,2.85
2023-03-27T20:13:48.893Z,2.77
2023-03-27T20:19:06.150Z,2.80
2023-03-27T20:24:14.022Z,2.84
2023-03-27T20:29:20.830Z,2.78
2023-03-27T20:34:24.189Z,2.63
2023-03-27T20:39:30.094Z,2.54
2023-03-27T20:44:35.979Z,2.45
2023-03-27T20:49:43.222Z,2.33
2023-03-27T20:54:47.590Z,2.29
2023-03-27T20:59:51.333Z,2.23
2023-03-27T21:04:54.275Z,2.22
2023-03-27T21:09:57.743Z,2.24
2023-03-27T21:15:00.879Z,2.23
2023-03-27T21:20:06.085Z,2.22
2023-03-27T21:25:09.485Z,2.22
2023-03-27T21:30:14.229Z,2.17
2023-03-27T21:35:18.560Z,2.14
2023-03-27T21:40:21.688Z,2.05
2023-03-27T21:45:24.793Z,2.07
2023-03-27T21:50:27.849Z,2.13
2023-03-27T21:55:30.848Z,2.07
2023-03-27T22:00:34.126Z,1.91
2023-03-27T22:05:38.731Z,1.86
2023-03-27T22:10:41.677Z,1.76
2023-03-27T22:15:44.637Z,1.67
2023-03-27T22:20:47.610Z,1.63
2023-03-27T22:25:55.034Z,1.60
2023-03-27T22:30:58.117Z,1.53
2023-03-27T22:36:01.538Z,1.48
2023-03-27T22:41:06.933Z,1.47
2023-03-27T22:46:16.000Z,1.41
2023-03-27T22:51:18.969Z,1.37
2023-03-27T22:56:22.025Z,1.32
2023-03-27T23:01:25.150Z,1.31
2023-03-27T23:06:28.488Z,1.32
2023-03-27T23:11:31.455Z,1.30
2023-03-27T23:16:34.430Z,1.28
2023-03-27T23:21:37.393Z,1.21
2023-03-27T23:26:40.438Z,1.13
2023-03-27T23:31:43.406Z,1.12
2023-03-27T23:36:46.409Z,1.08
2023-03-27T23:41:49.329Z,1.03
2023-03-27T23:46:52.291Z,1.00
2023-03-27T23:51:55.302Z,1.07
2023-03-27T23:56:58.354Z,1.11
